Terminal Aerodrome Forecast
Issued by NWS Memphis, TN

Home | Current Version | Previous Version | Text Only | Print | Product List | Glossary On
Versions: 1 2 3 4 5 6 7 8 9 10 11 12 13 14 15 16 17 18 19 20 21 22 23 24 25 26 27 28 29
000
FTUS44 KMEG 192326
TAFMEM
TAF
KMEM 192326Z 2000/2024 03006KT P6SM SCT040 OVC100
      TEMPO 2000/2001 -RA
     FM200700 05003KT P6SM FEW050 BKN150
     FM201500 04004KT P6SM FEW040=

USA.gov is the U.S. government's official web portal to all federal, state and local government web resources and services.